createdAt,value
2019-05-14T00:00:32.028Z,99.90
2019-05-14T00:01:35.119Z,99.90
2019-05-14T00:02:41.189Z,99.90
2019-05-14T00:03:44.606Z,99.90
2019-05-14T00:04:48.252Z,99.90
2019-05-14T00:05:52.353Z,99.90
2019-05-14T00:06:55.910Z,99.90
2019-05-14T00:08:02.089Z,99.90
2019-05-14T00:09:05.902Z,99.90
2019-05-14T00:10:11.893Z,99.90
2019-05-14T00:11:15.563Z,99.90
2019-05-14T00:12:22.135Z,99.90
2019-05-14T00:13:24.891Z,99.90
2019-05-14T00:14:37.224Z,99.90
2019-05-14T00:15:34.244Z,99.90
2019-05-14T00:16:38.364Z,99.90
2019-05-14T00:17:41.944Z,99.90
2019-05-14T00:18:46.082Z,99.90
2019-05-14T00:20:03.759Z,99.90
2019-05-14T00:20:55.474Z,99.90
2019-05-14T00:21:59.030Z,99.90
2019-05-14T00:23:03.217Z,99.90
2019-05-14T00:24:06.843Z,99.90
2019-05-14T00:25:11.688Z,99.90
2019-05-14T00:26:15.362Z,99.90
2019-05-14T00:27:21.693Z,99.90
2019-05-14T00:28:24.720Z,99.90
2019-05-14T00:29:28.829Z,99.90
2019-05-14T00:30:32.430Z,99.90
2019-05-14T00:31:36.542Z,99.90
2019-05-14T00:32:41.454Z,99.90
2019-05-14T00:33:45.730Z,99.90
2019-05-14T00:34:51.381Z,99.90
2019-05-14T00:35:55.101Z,99.90
2019-05-14T00:36:58.658Z,99.90
2019-05-14T00:38:02.776Z,99.90
2019-05-14T00:39:06.842Z,99.90
2019-05-14T00:40:11.752Z,99.90
2019-05-14T00:41:15.472Z,99.90
2019-05-14T00:42:21.530Z,99.90
2019-05-14T00:43:24.867Z,99.90
2019-05-14T00:44:29.056Z,99.90
2019-05-14T00:45:32.660Z,99.90
2019-05-14T00:46:36.831Z,99.90
2019-05-14T00:47:41.847Z,99.90
2019-05-14T00:48:46.273Z,99.90
2019-05-14T00:49:51.699Z,99.90
2019-05-14T00:50:55.777Z,99.90
2019-05-14T00:51:59.393Z,99.90
2019-05-14T00:53:03.508Z,99.90
2019-05-14T00:54:07.068Z,99.90
2019-05-14T00:55:11.831Z,99.90
2019-05-14T00:56:15.491Z,99.90
2019-05-14T00:57:21.144Z,99.90
2019-05-14T00:58:24.806Z,99.90
2019-05-14T00:59:28.927Z,99.90
2019-05-14T01:00:32.567Z,99.90
2019-05-14T01:01:36.727Z,99.90
2019-05-14T01:02:41.573Z,99.90
2019-05-14T01:03:45.908Z,99.90
2019-05-14T01:04:51.388Z,99.90
2019-05-14T01:05:55.241Z,99.90
2019-05-14T01:06:58.843Z,99.90
2019-05-14T01:08:02.960Z,99.90
2019-05-14T01:09:06.591Z,99.90
2019-05-14T01:10:11.580Z,99.90
2019-05-14T01:11:15.243Z,99.90
2019-05-14T01:12:21.363Z,99.90
2019-05-14T01:13:24.602Z,99.90
2019-05-14T01:14:28.718Z,99.90
2019-05-14T01:15:32.431Z,99.90
2019-05-14T01:16:36.559Z,99.90
2019-05-14T01:17:42.008Z,99.90
2019-05-14T01:18:45.875Z,99.90
2019-05-14T01:19:51.392Z,99.90
2019-05-14T01:20:55.368Z,99.90
2019-05-14T01:21:58.939Z,99.90
2019-05-14T01:23:03.051Z,99.90
2019-05-14T01:24:06.614Z,99.90
2019-05-14T01:25:11.984Z,99.90
2019-05-14T01:26:15.746Z,99.90
2019-05-14T01:27:21.133Z,99.90
2019-05-14T01:28:24.764Z,99.90
2019-05-14T01:29:31.397Z,99.90
2019-05-14T01:30:34.083Z,99.90
2019-05-14T01:31:38.235Z,99.90
2019-05-14T01:32:42.197Z,99.90
2019-05-14T01:33:46.362Z,99.90
2019-05-14T01:34:51.985Z,99.90
2019-05-14T01:35:55.719Z,99.90
2019-05-14T01:36:59.283Z,99.90
2019-05-14T01:38:03.467Z,99.90
2019-05-14T01:39:07.094Z,99.90
2019-05-14T01:40:11.556Z,99.90
2019-05-14T01:41:15.130Z,99.90
2019-05-14T01:42:21.469Z,99.90
2019-05-14T01:43:24.471Z,99.90
2019-05-14T01:44:28.591Z,99.90
2019-05-14T01:45:32.768Z,99.90
2019-05-14T01:46:36.889Z,99.90
2019-05-14T01:47:41.387Z,99.90
2019-05-14T01:48:45.753Z,99.90
2019-05-14T01:49:51.309Z,99.90
2019-05-14T01:50:55.069Z,99.90
2019-05-14T01:51:58.632Z,99.90
2019-05-14T01:53:02.783Z,99.90
2019-05-14T01:54:06.349Z,99.90
2019-05-14T01:55:11.442Z,99.90
2019-05-14T01:56:15.099Z,99.90
2019-05-14T01:57:19.316Z,99.90
2019-05-14T01:58:22.876Z,99.90
2019-05-14T01:59:27.035Z,99.90
2019-05-14T02:00:31.440Z,99.90
2019-05-14T02:01:35.690Z,99.90
2019-05-14T02:02:41.571Z,99.90
2019-05-14T02:03:45.066Z,99.90
2019-05-14T02:04:51.126Z,99.90
2019-05-14T02:05:54.382Z,99.90
2019-05-14T02:06:57.944Z,99.90
2019-05-14T02:08:02.119Z,99.90
2019-05-14T02:09:06.786Z,99.90
2019-05-14T02:10:11.595Z,99.90
2019-05-14T02:11:15.307Z,99.90
2019-05-14T02:12:19.426Z,99.90
2019-05-14T02:13:23.032Z,99.90
2019-05-14T02:14:27.148Z,99.90
2019-05-14T02:15:39.050Z,99.90
2019-05-14T02:16:36.556Z,99.90
2019-05-14T02:17:41.341Z,99.90
2019-05-14T02:18:45.847Z,99.90
2019-05-14T02:19:51.427Z,99.90
2019-05-14T02:20:55.276Z,99.90
2019-05-14T02:21:58.848Z,99.90
2019-05-14T02:23:02.968Z,99.90
2019-05-14T02:24:06.579Z,99.90
2019-05-14T02:25:12.335Z,99.90
2019-05-14T02:26:15.894Z,99.90
2019-05-14T02:27:21.379Z,99.90
2019-05-14T02:28:25.223Z,99.90
2019-05-14T02:29:31.464Z,99.90
2019-05-14T02:30:48.351Z,99.90
2019-05-14T02:31:40.323Z,99.90
2019-05-14T02:32:43.920Z,99.90
2019-05-14T02:33:50.358Z,99.90
2019-05-14T02:34:53.301Z,99.90
2019-05-14T02:36:00.006Z,99.90
2019-05-14T02:37:02.638Z,99.90
2019-05-14T02:38:10.119Z,99.90
2019-05-14T02:39:12.002Z,99.90
2019-05-14T02:40:16.221Z,99.90
2019-05-14T02:41:19.901Z,99.90
2019-05-14T02:42:24.041Z,99.90
2019-05-14T02:43:29.294Z,99.90
2019-05-14T02:44:33.366Z,99.90
2019-05-14T02:45:45.191Z,99.90
2019-05-14T02:46:43.675Z,99.90
2019-05-14T02:47:49.376Z,99.90
2019-05-14T02:48:53.004Z,99.90
2019-05-14T02:49:59.038Z,99.90
2019-05-14T02:51:02.335Z,99.90
2019-05-14T02:52:09.590Z,99.90
2019-05-14T02:53:11.685Z,99.90
2019-05-14T02:54:15.243Z,99.90
2019-05-14T02:55:19.653Z,99.90
2019-05-14T02:56:23.324Z,99.90
2019-05-14T02:57:30.345Z,99.90
2019-05-14T02:58:32.762Z,99.90
2019-05-14T02:59:39.471Z,99.90
2019-05-14T03:00:42.087Z,99.90
2019-05-14T03:01:46.210Z,99.90
2019-05-14T03:02:49.853Z,99.90
2019-05-14T03:03:54.028Z,99.90
2019-05-14T03:04:59.211Z,99.90
2019-05-14T03:06:03.522Z,99.90
2019-05-14T03:07:10.336Z,99.90
2019-05-14T03:08:13.046Z,99.90
2019-05-14T03:09:20.061Z,99.90
2019-05-14T03:10:22.441Z,99.90
2019-05-14T03:11:29.452Z,99.90
2019-05-14T03:12:31.895Z,99.90
2019-05-14T03:13:35.551Z,99.90
2019-05-14T03:14:40.249Z,99.90
2019-05-14T03:15:44.035Z,99.90
2019-05-14T03:16:49.491Z,99.90
2019-05-14T03:17:53.692Z,99.90
2019-05-14T03:18:59.506Z,99.90
2019-05-14T03:20:04.192Z,99.90
2019-05-14T03:21:09.368Z,99.90
2019-05-14T03:22:13.128Z,99.90
2019-05-14T03:23:20.959Z,99.90
2019-05-14T03:24:22.635Z,99.90
2019-05-14T03:25:29.686Z,99.90
2019-05-14T03:26:32.010Z,99.90
2019-05-14T03:27:36.183Z,99.90
2019-05-14T03:28:40.124Z,99.90
2019-05-14T03:29:44.358Z,99.90
2019-05-14T03:30:51.953Z,99.90
2019-05-14T03:31:53.868Z,99.90
2019-05-14T03:33:02.902Z,99.90
2019-05-14T03:34:03.939Z,99.90
2019-05-14T03:35:13.621Z,99.90
2019-05-14T03:36:17.619Z,99.90
2019-05-14T03:37:23.294Z,99.90
2019-05-14T03:38:24.790Z,99.90
2019-05-14T03:39:29.614Z,99.90
2019-05-14T03:40:33.929Z,99.90
2019-05-14T03:41:39.727Z,99.90
2019-05-14T03:42:43.261Z,99.90
2019-05-14T03:43:49.356Z,99.90
2019-05-14T03:44:52.656Z,99.90
2019-05-14T03:45:59.001Z,99.90
2019-05-14T03:47:05.226Z,99.90
2019-05-14T03:48:10.439Z,99.90
2019-05-14T03:49:13.210Z,99.90
2019-05-14T03:50:19.171Z,99.90
2019-05-14T03:51:22.609Z,99.90
2019-05-14T03:52:28.913Z,99.90
2019-05-14T03:53:49.778Z,99.90
2019-05-14T03:54:40.218Z,99.90
2019-05-14T03:55:43.349Z,99.90
2019-05-14T03:56:49.743Z,99.90
2019-05-14T03:57:52.839Z,99.90
2019-05-14T03:58:59.643Z,99.90
2019-05-14T04:00:02.253Z,99.90
2019-05-14T04:01:09.330Z,99.90
2019-05-14T04:02:11.817Z,99.90
2019-05-14T04:03:15.863Z,99.90
2019-05-14T04:04:20.148Z,99.90
2019-05-14T04:05:24.151Z,99.90
2019-05-14T04:06:30.229Z,99.90
2019-05-14T04:07:35.655Z,99.90
2019-05-14T04:08:41.853Z,99.90
2019-05-14T04:09:49.474Z,99.90
2019-05-14T04:10:54.754Z,99.90
2019-05-14T04:12:01.535Z,99.90
2019-05-14T04:13:08.980Z,99.90
2019-05-14T04:14:13.764Z,99.90
2019-05-14T04:15:19.292Z,99.90
2019-05-14T04:16:24.023Z,99.90
2019-05-14T04:17:36.967Z,99.90
2019-05-14T04:18:40.132Z,99.90
2019-05-14T04:19:44.645Z,99.90
2019-05-14T04:20:50.287Z,99.90
2019-05-14T04:21:55.902Z,99.90
2019-05-14T04:23:01.803Z,99.90
2019-05-14T04:24:09.501Z,99.90
2019-05-14T04:25:11.612Z,99.90
2019-05-14T04:26:19.997Z,99.90
2019-05-14T04:27:24.950Z,99.90
2019-05-14T04:28:31.815Z,99.90
2019-05-14T04:29:39.547Z,99.90
2019-05-14T04:30:45.243Z,99.90
2019-05-14T04:31:50.211Z,99.90
2019-05-14T04:32:59.189Z,99.90
2019-05-14T04:34:03.250Z,99.90
2019-05-14T04:35:09.609Z,99.90
2019-05-14T04:36:12.651Z,99.90
2019-05-14T04:37:20.149Z,99.90
2019-05-14T04:38:22.665Z,99.90
2019-05-14T04:39:30.433Z,99.90
2019-05-14T04:40:32.109Z,99.90
2019-05-14T04:41:39.354Z,99.90
2019-05-14T04:42:41.677Z,99.90
2019-05-14T04:43:45.792Z,99.90
2019-05-14T04:44:50.661Z,99.90
2019-05-14T04:45:55.000Z,99.90
2019-05-14T04:46:59.990Z,99.90
2019-05-14T04:48:24.135Z,99.90
2019-05-14T04:49:09.955Z,99.90
2019-05-14T04:50:14.269Z,99.90
2019-05-14T04:51:19.890Z,99.90
2019-05-14T04:52:23.666Z,99.90
2019-05-14T04:53:30.331Z,99.90
2019-05-14T04:54:33.167Z,99.90
2019-05-14T04:55:39.922Z,99.90
2019-05-14T04:56:42.636Z,99.90
2019-05-14T04:57:49.811Z,99.90
2019-05-14T04:58:52.212Z,99.90
2019-05-14T04:59:55.821Z,99.90
2019-05-14T05:01:00.806Z,99.90
2019-05-14T05:02:04.470Z,99.90
2019-05-14T05:03:12.577Z,99.90
2019-05-14T05:04:13.847Z,99.90
2019-05-14T05:05:19.605Z,99.90
2019-05-14T05:06:23.330Z,99.90
2019-05-14T05:07:29.729Z,99.90
2019-05-14T05:08:32.657Z,99.90
2019-05-14T05:09:39.700Z,99.90
2019-05-14T05:10:42.021Z,99.90
2019-05-14T05:11:46.133Z,99.90
2019-05-14T05:12:49.700Z,99.90
2019-05-14T05:13:53.806Z,99.90
2019-05-14T05:14:58.625Z,99.90
2019-05-14T05:16:03.034Z,99.90
2019-05-14T05:17:09.290Z,99.90
2019-05-14T05:18:12.416Z,99.90
2019-05-14T05:19:15.975Z,99.90
2019-05-14T05:20:20.161Z,99.90
2019-05-14T05:21:23.764Z,99.90
2019-05-14T05:22:28.653Z,99.90
2019-05-14T05:23:32.368Z,99.90
2019-05-14T05:24:38.094Z,99.90
2019-05-14T05:25:41.848Z,99.90
2019-05-14T05:26:48.388Z,99.90
2019-05-14T05:27:51.215Z,99.90
2019-05-14T05:29:03.638Z,99.90
2019-05-14T05:30:00.606Z,99.90
2019-05-14T05:31:06.258Z,99.90
2019-05-14T05:32:09.827Z,99.90
2019-05-14T05:33:14.000Z,99.90
2019-05-14T05:34:19.284Z,99.90
2019-05-14T05:35:23.548Z,99.90
2019-05-14T05:36:29.004Z,99.90
2019-05-14T05:37:32.872Z,99.90
2019-05-14T05:38:39.128Z,99.90
2019-05-14T05:39:42.246Z,99.90
2019-05-14T05:40:48.405Z,99.90
2019-05-14T05:41:51.572Z,99.90
2019-05-14T05:42:55.162Z,99.90
2019-05-14T05:43:59.288Z,99.90
2019-05-14T05:45:02.875Z,99.90
2019-05-14T05:46:08.666Z,99.90
2019-05-14T05:47:12.438Z,99.90
2019-05-14T05:48:18.822Z,99.90
2019-05-14T05:49:21.828Z,99.90
2019-05-14T05:50:28.544Z,99.90
2019-05-14T05:51:31.158Z,99.90
2019-05-14T05:52:35.324Z,99.90
2019-05-14T05:53:39.468Z,99.90
2019-05-14T05:54:43.708Z,99.90
2019-05-14T05:55:48.499Z,99.90
2019-05-14T05:56:52.690Z,99.90
2019-05-14T05:57:58.523Z,99.90
2019-05-14T05:59:02.095Z,99.90
2019-05-14T06:00:09.399Z,99.90
2019-05-14T06:01:13.794Z,99.90
2019-05-14T06:02:18.603Z,99.90
2019-05-14T06:03:22.997Z,99.90
2019-05-14T06:04:28.774Z,99.90
2019-05-14T06:05:32.342Z,99.90
2019-05-14T06:06:35.904Z,99.90
2019-05-14T06:07:40.031Z,99.90
2019-05-14T06:08:43.692Z,99.90
2019-05-14T06:09:48.346Z,99.90
2019-05-14T06:10:51.967Z,99.90
2019-05-14T06:11:56.180Z,99.90
2019-05-14T06:12:59.821Z,99.90
2019-05-14T06:14:04.011Z,99.90
2019-05-14T06:15:08.680Z,99.90
2019-05-14T06:16:13.067Z,99.90
2019-05-14T06:17:18.888Z,99.90
2019-05-14T06:18:22.414Z,99.90
2019-05-14T06:19:25.947Z,99.90
2019-05-14T06:20:30.166Z,99.90
2019-05-14T06:21:33.741Z,99.90
2019-05-14T06:22:38.451Z,99.90
2019-05-14T06:23:42.256Z,99.90
2019-05-14T06:24:48.557Z,99.90
2019-05-14T06:25:51.634Z,99.90
2019-05-14T06:26:58.372Z,99.90
2019-05-14T06:28:00.968Z,99.90
2019-05-14T06:29:05.076Z,99.90
2019-05-14T06:30:09.428Z,99.90
2019-05-14T06:31:13.584Z,99.90
2019-05-14T06:32:18.701Z,99.90
2019-05-14T06:33:22.975Z,99.90
2019-05-14T06:34:28.892Z,99.90
2019-05-14T06:35:32.307Z,99.90
2019-05-14T06:36:35.919Z,99.90
2019-05-14T06:37:40.037Z,99.90
2019-05-14T06:38:43.596Z,99.90
2019-05-14T06:39:48.376Z,99.90
2019-05-14T06:40:52.224Z,99.90
2019-05-14T06:41:58.563Z,99.90
2019-05-14T06:43:01.594Z,99.90
2019-05-14T06:44:05.715Z,99.90
2019-05-14T06:45:09.520Z,99.90
2019-05-14T06:46:13.663Z,99.90
2019-05-14T06:47:18.469Z,99.90
2019-05-14T06:48:30.288Z,99.90
2019-05-14T06:49:28.995Z,99.90
2019-05-14T06:50:33.313Z,99.90
2019-05-14T06:51:39.325Z,99.90
2019-05-14T06:52:42.671Z,99.90
2019-05-14T06:53:46.240Z,99.90
2019-05-14T06:54:50.369Z,99.90
2019-05-14T06:55:53.934Z,99.90
2019-05-14T06:56:58.364Z,99.90
2019-05-14T06:58:02.735Z,99.90
2019-05-14T06:59:09.037Z,99.90
2019-05-14T07:00:12.312Z,99.90
2019-05-14T07:01:18.494Z,99.90
2019-05-14T07:02:21.724Z,99.90
2019-05-14T07:03:27.941Z,99.90
2019-05-14T07:04:31.075Z,99.90
2019-05-14T07:05:35.483Z,99.90
2019-05-14T07:06:39.251Z,99.90
2019-05-14T07:07:43.436Z,99.90
2019-05-14T07:08:48.697Z,99.90
2019-05-14T07:09:52.755Z,99.90
2019-05-14T07:10:59.017Z,99.90
2019-05-14T07:12:02.171Z,99.90
2019-05-14T07:13:08.419Z,99.90
2019-05-14T07:14:11.759Z,99.90
2019-05-14T07:15:15.511Z,99.90
2019-05-14T07:16:20.084Z,99.90
2019-05-14T07:17:23.704Z,99.90
2019-05-14T07:18:30.161Z,99.90
2019-05-14T07:19:33.031Z,99.90
2019-05-14T07:20:39.140Z,99.90
2019-05-14T07:21:42.496Z,99.90
2019-05-14T07:22:48.345Z,99.90
2019-05-14T07:23:51.840Z,99.90
2019-05-14T07:24:58.496Z,99.90
2019-05-14T07:26:01.214Z,99.90
2019-05-14T07:27:05.334Z,99.90
2019-05-14T07:28:09.019Z,99.90
2019-05-14T07:29:13.205Z,99.90
2019-05-14T07:30:19.384Z,99.90
2019-05-14T07:31:22.921Z,99.90
2019-05-14T07:32:28.717Z,99.90
2019-05-14T07:33:32.438Z,99.90
2019-05-14T07:34:36.007Z,99.90
2019-05-14T07:35:40.151Z,99.90
2019-05-14T07:36:43.754Z,99.90
2019-05-14T07:37:48.855Z,99.90
2019-05-14T07:38:56.003Z,99.90
2019-05-14T07:39:58.292Z,99.90
2019-05-14T07:41:01.899Z,99.90
2019-05-14T07:42:06.091Z,99.90
2019-05-14T07:43:09.671Z,99.90
2019-05-14T07:44:13.795Z,99.90
2019-05-14T07:45:18.502Z,99.90
2019-05-14T07:46:22.690Z,99.90
2019-05-14T07:47:26.256Z,99.90
2019-05-14T07:48:30.386Z,99.90
2019-05-14T07:49:33.944Z,99.90
2019-05-14T07:50:39.690Z,99.90
2019-05-14T07:51:43.320Z,99.90
2019-05-14T07:52:49.779Z,99.90
2019-05-14T07:53:52.658Z,99.90
2019-05-14T07:54:58.686Z,99.90
2019-05-14T07:56:02.037Z,99.90
2019-05-14T07:57:08.452Z,99.90
2019-05-14T07:58:11.394Z,99.90
2019-05-14T07:59:15.509Z,99.90
2019-05-14T08:00:21.019Z,99.90
2019-05-14T08:01:25.093Z,99.90
2019-05-14T08:02:29.088Z,99.90
2019-05-14T08:03:33.291Z,99.90
2019-05-14T08:04:38.084Z,99.90
2019-05-14T08:05:42.511Z,99.90
2019-05-14T08:06:48.562Z,99.90
2019-05-14T08:07:51.838Z,99.90
2019-05-14T08:08:55.464Z,99.90
2019-05-14T08:09:59.594Z,99.90
2019-05-14T08:11:03.164Z,99.90
2019-05-14T08:12:09.348Z,99.90
2019-05-14T08:13:12.507Z,99.90
2019-05-14T08:14:18.531Z,99.90
2019-05-14T08:15:22.557Z,99.90
2019-05-14T08:16:28.809Z,99.90
2019-05-14T08:17:32.022Z,99.90
2019-05-14T08:18:36.175Z,99.90
2019-05-14T08:19:39.735Z,99.90
2019-05-14T08:20:43.862Z,99.90
2019-05-14T08:21:48.138Z,99.90
2019-05-14T08:22:52.452Z,99.90
2019-05-14T08:23:58.634Z,99.90
2019-05-14T08:25:01.812Z,99.90
2019-05-14T08:26:05.375Z,99.90
2019-05-14T08:27:09.494Z,99.90
2019-05-14T08:28:13.059Z,99.90
2019-05-14T08:29:18.122Z,99.90
2019-05-14T08:30:21.916Z,99.90
2019-05-14T08:31:26.071Z,99.90
2019-05-14T08:32:29.711Z,99.90
2019-05-14T08:33:33.821Z,99.90
2019-05-14T08:34:38.910Z,99.90
2019-05-14T08:35:43.364Z,99.90
2019-05-14T08:36:48.336Z,99.90
2019-05-14T08:38:04.673Z,99.90
2019-05-14T08:38:58.177Z,99.90
2019-05-14T08:40:02.316Z,99.90
2019-05-14T08:41:08.204Z,99.90
2019-05-14T08:42:11.716Z,99.90
2019-05-14T08:43:15.275Z,99.90
2019-05-14T08:44:19.851Z,99.90
2019-05-14T08:45:23.608Z,99.90
2019-05-14T08:46:28.338Z,99.90
2019-05-14T08:47:32.109Z,99.90
2019-05-14T08:48:38.631Z,99.90
2019-05-14T08:49:46.273Z,99.90
2019-05-14T08:50:48.180Z,99.90
2019-05-14T08:51:51.856Z,99.90
2019-05-14T08:52:58.152Z,99.90
2019-05-14T08:54:01.241Z,99.90
2019-05-14T08:55:10.904Z,99.90
2019-05-14T08:56:13.581Z,99.90
2019-05-14T08:57:19.010Z,99.90
2019-05-14T08:58:22.815Z,99.90
2019-05-14T08:59:28.702Z,99.90
2019-05-14T09:00:32.196Z,99.90
2019-05-14T09:01:38.488Z,99.90
2019-05-14T09:02:41.592Z,99.90
2019-05-14T09:03:45.708Z,99.90
2019-05-14T09:04:54.251Z,99.90
2019-05-14T09:05:57.859Z,99.90
2019-05-14T09:07:00.310Z,99.90
2019-05-14T09:08:04.534Z,99.90
2019-05-14T09:09:09.666Z,99.90
2019-05-14T09:10:13.952Z,99.90
2019-05-14T09:11:24.866Z,99.90
2019-05-14T09:12:23.368Z,99.90
2019-05-14T09:13:29.000Z,99.90
2019-05-14T09:14:32.706Z,99.90
2019-05-14T09:15:38.496Z,99.90
2019-05-14T09:16:46.911Z,99.90
2019-05-14T09:17:48.478Z,99.90
2019-05-14T09:18:52.887Z,99.90
2019-05-14T09:20:05.636Z,99.90
2019-05-14T09:21:02.267Z,99.90
2019-05-14T09:22:05.844Z,99.90
2019-05-14T09:23:09.987Z,99.90
2019-05-14T09:24:13.579Z,99.90
2019-05-14T09:25:18.921Z,99.90
2019-05-14T09:26:22.750Z,99.90
2019-05-14T09:27:28.648Z,99.90
2019-05-14T09:28:32.119Z,99.90
2019-05-14T09:29:36.279Z,99.90
2019-05-14T09:30:39.879Z,99.90
2019-05-14T09:31:43.999Z,99.90
2019-05-14T09:32:49.312Z,99.90
2019-05-14T09:33:53.349Z,99.90
2019-05-14T09:34:58.970Z,99.90
2019-05-14T09:36:17.589Z,99.90
2019-05-14T09:37:08.575Z,99.90
2019-05-14T09:38:12.957Z,99.90
2019-05-14T09:39:18.615Z,99.90
2019-05-14T09:40:22.352Z,99.90
2019-05-14T09:41:28.617Z,99.90
2019-05-14T09:42:31.786Z,99.90
2019-05-14T09:43:35.357Z,99.90
2019-05-14T09:44:39.472Z,99.90
2019-05-14T09:45:43.089Z,99.90
2019-05-14T09:46:47.197Z,99.90
2019-05-14T09:47:50.910Z,99.90
2019-05-14T09:48:55.079Z,99.90
2019-05-14T09:50:15.061Z,99.90
2019-05-14T09:51:04.497Z,98.30
2019-05-14T09:52:09.040Z,98.80
2019-05-14T09:53:13.283Z,98.30
2019-05-14T09:54:18.899Z,96.80
2019-05-14T09:55:22.627Z,97.80
2019-05-14T09:56:26.227Z,97.80
2019-05-14T09:57:30.360Z,98.30
2019-05-14T09:58:33.962Z,98.60
2019-05-14T09:59:38.557Z,98.00
2019-05-14T10:00:42.160Z,97.10
2019-05-14T10:01:46.292Z,96.20
2019-05-14T10:02:49.852Z,95.80
2019-05-14T10:03:54.016Z,96.40
2019-05-14T10:04:59.769Z,96.60
2019-05-14T10:06:03.398Z,96.20
2019-05-14T10:07:08.763Z,95.30
2019-05-14T10:08:12.760Z,94.50
2019-05-14T10:09:16.364Z,95.30
2019-05-14T10:10:20.564Z,95.70
2019-05-14T10:11:24.127Z,94.60
2019-05-14T10:12:28.251Z,94.00
2019-05-14T10:13:31.889Z,93.50
2019-05-14T10:14:36.044Z,93.40
2019-05-14T10:15:39.777Z,94.20
2019-05-14T10:16:43.903Z,94.20
2019-05-14T10:17:49.952Z,94.40
2019-05-14T10:18:53.243Z,94.80
2019-05-14T10:19:59.409Z,96.50
2019-05-14T10:21:02.647Z,97.60
2019-05-14T10:22:08.317Z,98.90
2019-05-14T10:23:11.983Z,97.40
2019-05-14T10:24:15.573Z,97.10
2019-05-14T10:25:19.854Z,96.40
2019-05-14T10:26:23.424Z,95.30
2019-05-14T10:27:28.391Z,94.80
2019-05-14T10:28:32.048Z,94.80
2019-05-14T10:29:36.166Z,95.60
2019-05-14T10:30:39.779Z,95.70
2019-05-14T10:31:43.904Z,96.60
2019-05-14T10:32:49.246Z,96.60
2019-05-14T10:33:53.241Z,97.00
2019-05-14T10:34:58.861Z,97.50
2019-05-14T10:36:02.620Z,98.20
2019-05-14T10:37:08.379Z,98.50
2019-05-14T10:38:11.946Z,97.60
2019-05-14T10:39:15.511Z,96.60
2019-05-14T10:40:20.392Z,96.60
2019-05-14T10:41:23.993Z,96.90
2019-05-14T10:42:29.393Z,96.40
2019-05-14T10:43:33.112Z,96.00
2019-05-14T10:44:38.683Z,96.40
2019-05-14T10:45:42.640Z,95.50
2019-05-14T10:46:46.768Z,94.70
2019-05-14T10:47:50.340Z,94.40
2019-05-14T10:48:54.455Z,95.10
2019-05-14T10:49:58.449Z,95.10
2019-05-14T10:51:03.504Z,94.60
2019-05-14T10:52:08.263Z,92.80
2019-05-14T10:53:12.647Z,90.00
2019-05-14T10:54:22.444Z,88.80
2019-05-14T10:55:21.990Z,90.90
2019-05-14T10:56:25.566Z,91.90
2019-05-14T10:57:29.718Z,91.50
2019-05-14T10:58:33.292Z,91.50
2019-05-14T10:59:37.417Z,91.50
2019-05-14T11:00:41.913Z,91.30
2019-05-14T11:01:46.217Z,91.00
2019-05-14T11:02:49.817Z,90.80
2019-05-14T11:03:53.930Z,91.30
2019-05-14T11:04:58.730Z,91.60
2019-05-14T11:06:02.957Z,91.80
2019-05-14T11:07:06.519Z,92.30
2019-05-14T11:08:11.893Z,92.10
2019-05-14T11:09:17.939Z,92.80
2019-05-14T11:10:21.651Z,93.50
2019-05-14T11:11:25.223Z,93.10
2019-05-14T11:12:29.851Z,92.00
2019-05-14T11:13:33.518Z,91.70
2019-05-14T11:14:38.780Z,91.80
2019-05-14T11:15:42.652Z,92.10
2019-05-14T11:16:48.513Z,93.10
2019-05-14T11:17:52.034Z,92.90
2019-05-14T11:18:57.610Z,93.20
2019-05-14T11:20:01.392Z,92.00
2019-05-14T11:21:19.742Z,92.10
2019-05-14T11:22:10.859Z,90.30
2019-05-14T11:23:14.977Z,88.80
2019-05-14T11:24:19.031Z,88.10
2019-05-14T11:25:23.331Z,91.30
2019-05-14T11:26:29.193Z,90.80
2019-05-14T11:27:32.699Z,90.20
2019-05-14T11:28:36.271Z,90.10
2019-05-14T11:29:40.427Z,90.80
2019-05-14T11:30:44.023Z,92.40
2019-05-14T11:31:48.617Z,92.00
2019-05-14T11:32:52.243Z,92.30
2019-05-14T11:33:58.851Z,92.20
2019-05-14T11:35:01.578Z,91.70
2019-05-14T11:36:05.705Z,90.80
2019-05-14T11:37:09.270Z,91.60
2019-05-14T11:38:28.402Z,91.20
2019-05-14T11:39:18.683Z,91.00
2019-05-14T11:40:22.946Z,91.30
2019-05-14T11:41:26.511Z,91.10
2019-05-14T11:42:31.493Z,91.00
2019-05-14T11:43:35.227Z,90.80
2019-05-14T11:44:39.379Z,90.50
2019-05-14T11:45:43.026Z,91.50
2019-05-14T11:46:57.098Z,91.20
2019-05-14T11:47:52.373Z,88.20
2019-05-14T11:48:59.221Z,86.50
2019-05-14T11:50:01.927Z,86.60
2019-05-14T11:51:08.810Z,86.20
2019-05-14T11:52:11.975Z,85.90
2019-05-14T11:53:19.816Z,85.30
2019-05-14T11:54:23.157Z,85.60
2019-05-14T11:55:27.384Z,86.10
2019-05-14T11:56:31.047Z,85.70
2019-05-14T11:57:35.146Z,87.20
2019-05-14T11:58:38.712Z,88.20
2019-05-14T11:59:42.876Z,89.00
2019-05-14T12:00:46.967Z,89.30
2019-05-14T12:01:54.812Z,88.80
2019-05-14T12:02:58.442Z,87.10
2019-05-14T12:04:02.138Z,87.90
2019-05-14T12:05:08.850Z,89.90
2019-05-14T12:06:13.158Z,89.80
2019-05-14T12:07:18.615Z,89.90
2019-05-14T12:08:22.578Z,90.00
2019-05-14T12:09:28.200Z,90.70
2019-05-14T12:10:31.952Z,90.10
2019-05-14T12:11:35.526Z,90.40
2019-05-14T12:12:39.707Z,91.30
2019-05-14T12:13:43.271Z,91.30
2019-05-14T12:14:48.505Z,91.90
2019-05-14T12:15:52.202Z,92.60
2019-05-14T12:16:56.327Z,91.60
2019-05-14T12:17:59.891Z,91.10
2019-05-14T12:19:04.003Z,90.10
2019-05-14T12:20:07.812Z,90.10
2019-05-14T12:21:11.964Z,88.10
2019-05-14T12:22:15.532Z,90.10
2019-05-14T12:23:19.691Z,89.40
2019-05-14T12:24:23.267Z,88.70
2019-05-14T12:25:29.418Z,86.90
2019-05-14T12:26:32.651Z,87.70
2019-05-14T12:27:38.788Z,87.00
2019-05-14T12:28:41.999Z,85.10
2019-05-14T12:29:49.458Z,81.80
2019-05-14T12:30:51.327Z,82.50
2019-05-14T12:31:55.483Z,83.20
2019-05-14T12:32:59.226Z,84.40
2019-05-14T12:34:03.370Z,82.60
2019-05-14T12:35:08.584Z,84.60
2019-05-14T12:36:12.992Z,79.50
2019-05-14T12:37:18.638Z,78.70
2019-05-14T12:38:22.410Z,79.40
2019-05-14T12:39:25.982Z,81.50
2019-05-14T12:40:30.179Z,81.60
2019-05-14T12:41:33.744Z,83.00
2019-05-14T12:42:39.197Z,83.20
2019-05-14T12:43:43.894Z,82.80
2019-05-14T12:44:48.240Z,81.40
2019-05-14T12:45:51.843Z,81.50
2019-05-14T12:46:58.526Z,81.10
2019-05-14T12:48:01.211Z,81.80
2019-05-14T12:49:05.428Z,81.70
2019-05-14T12:50:10.089Z,82.60
2019-05-14T12:51:14.241Z,83.40
2019-05-14T12:52:25.319Z,82.10
2019-05-14T12:53:23.591Z,81.80
2019-05-14T12:54:29.757Z,81.90
2019-05-14T12:55:32.956Z,82.50
2019-05-14T12:56:38.783Z,82.20
2019-05-14T12:57:42.312Z,81.50
2019-05-14T12:58:46.218Z,84.50
2019-05-14T12:59:51.931Z,80.70
2019-05-14T13:00:55.508Z,83.10
2019-05-14T13:01:59.641Z,83.00
2019-05-14T13:03:03.248Z,82.70
2019-05-14T13:04:08.492Z,81.80
2019-05-14T13:05:12.264Z,80.70
2019-05-14T13:06:18.866Z,79.50
2019-05-14T13:07:21.600Z,81.10
2019-05-14T13:08:25.791Z,77.30
2019-05-14T13:09:29.424Z,77.40
2019-05-14T13:10:33.542Z,77.50
2019-05-14T13:11:41.311Z,79.00
2019-05-14T13:12:43.012Z,80.70
2019-05-14T13:13:48.819Z,80.40
2019-05-14T13:14:52.335Z,80.70
2019-05-14T13:15:55.908Z,83.90
2019-05-14T13:17:00.019Z,82.80
2019-05-14T13:18:03.618Z,81.50
2019-05-14T13:19:09.235Z,81.90
2019-05-14T13:20:13.974Z,81.70
2019-05-14T13:21:19.110Z,81.70
2019-05-14T13:22:38.244Z,83.20
2019-05-14T13:23:29.320Z,81.50
2019-05-14T13:24:32.908Z,82.00
2019-05-14T13:25:39.105Z,83.70
2019-05-14T13:26:42.236Z,83.30
2019-05-14T13:27:46.480Z,83.20
2019-05-14T13:28:51.104Z,80.80
2019-05-14T13:29:55.287Z,77.40
2019-05-14T13:30:59.641Z,79.20
2019-05-14T13:32:03.861Z,77.80
2019-05-14T13:33:08.907Z,76.40
2019-05-14T13:34:13.096Z,78.60
2019-05-14T13:35:19.391Z,77.20
2019-05-14T13:36:22.603Z,77.50
2019-05-14T13:37:28.667Z,76.70
2019-05-14T13:38:32.002Z,75.60
2019-05-14T13:39:35.559Z,75.30
2019-05-14T13:40:39.697Z,74.30
2019-05-14T13:41:43.298Z,74.10
2019-05-14T13:42:49.173Z,75.70
2019-05-14T13:43:52.856Z,75.20
2019-05-14T13:44:58.452Z,76.00
2019-05-14T13:46:02.054Z,76.70
2019-05-14T13:47:09.032Z,77.40
2019-05-14T13:48:11.427Z,78.90
2019-05-14T13:49:15.543Z,78.50
2019-05-14T13:50:20.000Z,80.40